Time;durP1;ratioP1;P1;durP2;ratioP2;P2;SDS_P1;SDS_P2;PMS_P1;PMS_P2;Temp;Humidity;BMP_temperature;BMP_pressure;BME280_temperature;BME280_humidity;BME280_pressure;Samples;Min_cycle;Max_cycle;Signal;HPM_P1;HPM_P2
2023/09/19 00:02:17;;;;;;;9.13;2.13;;;;;;;20.03;60.35;100319.00;5069254;28;20035;-79
2023/09/19 00:04:43;;;;;;;10.48;1.30;;;;;;;20.03;60.78;100321.69;5069139;28;20388;-80
2023/09/19 00:07:12;;;;;;;8.40;1.60;;;;;;;20.01;60.69;100318.22;5069044;28;20025;-81
2023/09/19 00:09:37;;;;;;;7.78;1.30;;;;;;;19.94;60.86;100325.63;5068123;28;20032;-80
2023/09/19 00:12:06;;;;;;;5.63;1.17;;;;;;;19.88;61.29;100323.19;5049029;28;20037;-80
2023/09/19 00:14:35;;;;;;;7.07;1.38;;;;;;;19.86;61.06;100318.81;5048805;28;20032;-80
2023/09/19 00:17:07;;;;;;;9.85;1.48;;;;;;;19.85;61.33;100325.09;5049351;28;20112;-81
2023/09/19 00:19:32;;;;;;;8.52;1.40;;;;;;;19.83;61.70;100326.97;5049021;28;20057;-80
2023/09/19 00:21:58;;;;;;;6.17;1.30;;;;;;;19.75;61.83;100325.50;5051297;28;20455;-78
2023/09/19 00:24:23;;;;;;;7.33;1.47;;;;;;;19.75;61.72;100324.63;5049280;28;20113;-81
2023/09/19 00:26:49;;;;;;;8.45;1.67;;;;;;;19.75;61.58;100324.63;5048760;28;20091;-78
2023/09/19 00:29:16;;;;;;;6.93;1.00;;;;;;;19.73;61.71;100322.03;5048800;28;20031;-80
2023/09/19 00:31:44;;;;;;;8.73;1.60;;;;;;;19.75;61.70;100320.16;5067815;28;20048;-80
2023/09/19 00:34:10;;;;;;;9.63;1.30;;;;;;;19.72;61.68;100317.63;5068606;28;20043;-79
2023/09/19 00:36:39;;;;;;;8.02;1.30;;;;;;;19.74;61.56;100322.88;5068848;28;20048;-79
2023/09/19 00:39:05;;;;;;;8.57;1.80;;;;;;;19.73;61.68;100315.78;5069102;28;20032;-77
2023/09/19 00:41:31;;;;;;;8.02;1.25;;;;;;;19.72;61.94;100324.75;5071159;28;20028;-80
2023/09/19 00:43:57;;;;;;;10.68;1.58;;;;;;;19.71;61.90;100317.66;5072860;28;20428;-79
2023/09/19 00:46:22;;;;;;;7.90;1.43;;;;;;;19.63;62.19;100328.66;5072746;28;20024;-80
2023/09/19 00:48:49;;;;;;;6.90;1.30;;;;;;;19.56;62.13;100324.50;5067642;28;20017;-81
2023/09/19 00:51:19;;;;;;;8.02;1.40;;;;;;;19.53;62.52;100327.31;5052856;28;20132;-80
2023/09/19 00:53:46;;;;;;;5.68;1.17;;;;;;;19.55;62.09;100329.00;5052617;28;20056;-81
2023/09/19 00:56:11;;;;;;;8.27;1.17;;;;;;;19.55;62.09;100333.44;5060868;28;20028;-80
2023/09/19 00:58:38;;;;;;;9.93;1.33;;;;;;;19.55;62.00;100333.44;5072510;28;20487;-79
2023/09/19 01:01:06;;;;;;;7.10;1.20;;;;;;;19.54;62.22;100329.03;5072794;28;20067;-79
2023/09/19 01:03:33;;;;;;;10.60;1.80;;;;;;;19.49;62.16;100330.09;5072639;28;20032;-80
2023/09/19 01:06:00;;;;;;;9.65;1.45;;;;;;;19.47;62.41;100321.28;5072432;28;20028;-80
2023/09/19 01:08:29;;;;;;;8.60;1.10;;;;;;;19.46;62.87;100324.00;5072563;28;20032;-81
2023/09/19 01:11:13;;;;;;;7.57;1.33;;;;;;;19.45;63.02;100319.59;5061001;28;20017;-81
2023/09/19 01:14:01;;;;;;;6.90;1.20;;;;;;;19.42;63.14;100320.59;5052262;28;20086;-78
2023/09/19 01:16:50;;;;;;;7.20;1.30;;;;;;;19.43;62.62;100318.78;5052294;28;20481;-78
2023/09/19 01:19:34;;;;;;;8.18;1.38;;;;;;;19.44;62.57;100323.19;5041487;28;20052;-78
2023/09/19 01:22:24;;;;;;;6.57;1.27;;;;;;;19.44;62.98;100324.09;5052249;28;20036;-77
2023/09/19 01:25:04;;;;;;;7.57;1.33;;;;;;;19.44;62.79;100325.88;5052190;28;20489;-77
2023/09/19 01:27:54;;;;;;;8.65;1.77;;;;;;;19.42;63.02;100320.59;5067016;28;20048;-80
2023/09/19 01:30:24;;;;;;;7.27;1.47;;;;;;;19.39;63.25;100318.03;5053606;28;20486;-78
2023/09/19 01:32:52;;;;;;;9.10;1.30;;;;;;;19.33;63.45;100319.16;5071939;28;20025;-80
2023/09/19 01:35:18;;;;;;;8.68;1.60;;;;;;;19.26;63.23;100317.66;5071884;28;20036;-77
2023/09/19 01:37:44;;;;;;;7.90;1.27;;;;;;;19.20;63.88;100317.91;5071941;28;20029;-78
2023/09/19 01:40:19;;;;;;;11.35;1.70;;;;;;;19.15;63.83;100323.41;5072091;28;20037;-79
2023/09/19 01:42:55;;;;;;;7.63;1.10;;;;;;;19.12;63.97;100318.19;5071796;28;20031;-79
2023/09/19 01:45:23;;;;;;;10.52;1.48;;;;;;;19.13;63.87;100311.94;5072138;28;20041;-81
2023/09/19 01:47:56;;;;;;;6.75;1.35;;;;;;;19.15;63.74;100312.72;5053436;28;20025;-81
2023/09/19 01:51:03;;;;;;;8.10;1.52;;;;;;;19.10;64.17;100309.38;5053888;28;20071;-79
2023/09/19 01:54:03;;;;;;;8.55;1.60;;;;;;;19.00;64.00;100306.19;5040037;28;20416;-80
2023/09/19 01:56:52;;;;;;;7.07;1.33;;;;;;;18.88;64.58;100306.66;5061945;28;20423;-80
2023/09/19 01:59:27;;;;;;;10.15;1.27;;;;;;;18.82;64.40;100296.22;5071651;28;20035;-80
2023/09/19 02:01:54;;;;;;;10.30;1.40;;;;;;;18.78;64.69;100298.97;5071743;28;20028;-78
2023/09/19 02:04:20;;;;;;;9.48;1.20;;;;;;;18.81;64.74;100300.66;5071507;28;20032;-80
2023/09/19 02:06:47;;;;;;;11.63;1.40;;;;;;;18.83;64.49;100306.81;5071269;28;20032;-78
2023/09/19 02:09:14;;;;;;;7.82;1.02;;;;;;;18.85;64.31;100302.28;5071135;28;20456;-80
2023/09/19 02:11:40;;;;;;;6.68;1.20;;;;;;;18.86;64.56;100300.50;5053324;28;20029;-81
2023/09/19 02:14:08;;;;;;;9.10;1.48;;;;;;;18.88;64.50;100301.31;5051121;28;20033;-78
2023/09/19 02:16:34;;;;;;;8.57;1.40;;;;;;;18.88;64.26;100301.31;5051124;28;20033;-79
2023/09/19 02:19:00;;;;;;;9.50;1.40;;;;;;;18.88;64.43;100299.50;5051107;28;20025;-79
2023/09/19 02:21:27;;;;;;;8.43;1.20;;;;;;;18.88;64.22;100296.84;5051122;28;20390;-78
2023/09/19 02:23:52;;;;;;;7.97;1.90;;;;;;;18.87;64.09;100297.75;5067329;28;20028;-78
2023/09/19 02:26:20;;;;;;;6.30;1.40;;;;;;;18.87;64.45;100294.25;5061690;28;20104;-78
2023/09/19 02:28:45;;;;;;;8.93;1.40;;;;;;;18.86;64.11;100297.84;5050838;28;20032;-77
2023/09/19 02:31:11;;;;;;;9.38;1.48;;;;;;;18.79;64.43;100291.84;5050527;28;20053;-78
2023/09/19 02:33:37;;;;;;;7.80;1.27;;;;;;;18.71;64.65;100292.16;5050652;28;20059;-77
2023/09/19 02:36:03;;;;;;;7.72;1.42;;;;;;;18.64;64.94;100285.31;5051020;28;20029;-77
2023/09/19 02:38:29;;;;;;;7.90;1.03;;;;;;;18.59;65.00;100288.13;5050840;28;20068;-77
2023/09/19 02:40:55;;;;;;;6.68;1.27;;;;;;;18.54;65.20;100291.91;5050837;28;20052;-80
2023/09/19 02:43:24;;;;;;;6.50;1.33;;;;;;;18.50;65.63;100296.50;5051134;28;20033;-80
2023/09/19 02:45:50;;;;;;;10.05;1.40;;;;;;;18.47;65.52;100283.28;5050716;28;20021;-76
2023/09/19 02:48:16;;;;;;;8.43;1.50;;;;;;;18.43;65.53;100287.84;5050662;28;20392;-77
2023/09/19 02:50:42;;;;;;;8.90;1.30;;;;;;;18.39;65.98;100285.34;5070464;28;20037;-78
2023/09/19 02:53:08;;;;;;;8.40;1.30;;;;;;;18.34;65.84;100285.53;5070251;28;20492;-77
2023/09/19 02:55:33;;;;;;;8.57;1.70;;;;;;;18.30;66.02;100281.19;5067759;28;20033;-80
2023/09/19 02:58:00;;;;;;;8.82;1.50;;;;;;;18.27;66.00;100273.31;5050926;28;20116;-77
2023/09/19 03:00:27;;;;;;;7.93;1.50;;;;;;;18.25;66.20;100272.50;5050471;28;20400;-78
2023/09/19 03:02:56;;;;;;;8.15;1.50;;;;;;;18.20;66.40;100272.66;5050268;28;20025;-78
2023/09/19 03:05:23;;;;;;;8.48;1.58;;;;;;;18.15;66.24;100266.63;5050008;28;20546;-78
2023/09/19 03:07:50;;;;;;;9.07;1.60;;;;;;;18.15;66.34;100264.84;5050093;28;20071;-80
2023/09/19 03:10:19;;;;;;;8.15;1.10;;;;;;;18.15;66.20;100264.84;5050263;28;20025;-78
2023/09/19 03:12:46;;;;;;;8.17;1.27;;;;;;;18.15;66.26;100269.28;5052642;28;20056;-79
2023/09/19 03:15:11;;;;;;;9.05;1.50;;;;;;;18.18;66.17;100269.19;5050174;28;20235;-80
2023/09/19 03:17:37;;;;;;;5.67;1.60;;;;;;;18.22;65.95;100265.50;5049756;28;20536;-80
2023/09/19 03:20:04;;;;;;;8.38;1.48;;;;;;;18.25;65.96;100272.50;5047802;28;20031;-78
2023/09/19 03:22:29;;;;;;;7.40;1.30;;;;;;;18.23;65.90;100267.25;5069899;28;20037;-80
2023/09/19 03:24:55;;;;;;;6.40;1.20;;;;;;;18.24;65.73;100274.31;5069745;28;20499;-77
2023/09/19 03:27:20;;;;;;;6.20;1.30;;;;;;;18.22;65.74;100270.84;5051783;28;20108;-77
2023/09/19 03:29:49;;;;;;;8.57;1.30;;;;;;;18.21;65.75;100275.28;5049678;28;20112;-76
2023/09/19 03:32:15;;;;;;;9.05;1.35;;;;;;;18.22;65.74;100270.84;5049298;28;20044;-76
2023/09/19 03:34:42;;;;;;;8.05;1.60;;;;;;;18.22;65.90;100276.16;5049935;28;20388;-78
2023/09/19 03:37:08;;;;;;;5.65;1.10;;;;;;;18.20;65.69;100272.66;5049814;28;20029;-80
2023/09/19 03:39:33;;;;;;;8.17;1.60;;;;;;;18.15;65.87;100271.97;5050021;28;20030;-77
2023/09/19 03:41:59;;;;;;;9.63;1.42;;;;;;;18.10;66.06;100271.25;5049747;28;20025;-80
2023/09/19 03:44:24;;;;;;;7.93;1.50;;;;;;;18.05;66.13;100268.75;5049932;28;20053;-77
2023/09/19 03:46:49;;;;;;;6.80;1.20;;;;;;;17.97;66.52;100263.69;5049358;28;20028;-77
2023/09/19 03:49:15;;;;;;;8.43;1.60;;;;;;;17.92;66.85;100265.59;5057772;28;20113;-77
2023/09/19 03:51:41;;;;;;;6.57;1.30;;;;;;;17.89;66.69;100265.72;5069493;28;20016;-78
2023/09/19 03:54:07;;;;;;;8.15;1.42;;;;;;;17.89;66.52;100268.38;5069360;28;20472;-77
2023/09/19 03:56:32;;;;;;;7.03;1.40;;;;;;;17.90;66.57;100273.66;5058343;28;20025;-78
2023/09/19 03:58:58;;;;;;;11.87;1.40;;;;;;;17.92;66.48;100268.28;5049637;28;20023;-79
2023/09/19 04:01:23;;;;;;;6.93;1.55;;;;;;;17.91;66.34;100264.75;5049475;28;20028;-78
2023/09/19 04:03:50;;;;;;;5.60;1.40;;;;;;;17.92;66.41;100261.16;5049310;28;20409;-78
2023/09/19 04:06:16;;;;;;;8.20;1.33;;;;;;;17.93;66.09;100262.91;5049495;28;20504;-77
2023/09/19 04:08:43;;;;;;;10.83;1.87;;;;;;;17.94;66.34;100255.75;5051415;28;20043;-77
2023/09/19 04:11:08;;;;;;;7.03;1.45;;;;;;;17.89;66.33;100263.06;5062779;28;20512;-77
2023/09/19 04:13:34;;;;;;;7.77;1.00;;;;;;;17.79;66.51;100263.38;5051322;28;20191;-77
2023/09/19 04:15:59;;;;;;;6.53;1.50;;;;;;;17.71;66.84;100260.09;5070626;28;20032;-77
2023/09/19 04:18:25;;;;;;;10.03;1.57;;;;;;;17.62;66.99;100260.41;5073527;28;20040;-78
2023/09/19 04:20:51;;;;;;;6.38;1.52;;;;;;;17.55;67.29;100258.88;5073621;28;20086;-77
2023/09/19 04:23:17;;;;;;;9.10;1.93;;;;;;;17.50;67.23;100256.38;5073973;28;20037;-79
2023/09/19 04:25:43;;;;;;;9.27;2.00;;;;;;;17.44;67.38;100256.56;5068971;28;20055;-77
2023/09/19 04:28:10;;;;;;;8.30;1.50;;;;;;;17.44;67.65;100261.91;5053303;28;20737;-78
2023/09/19 04:30:36;;;;;;;9.88;1.48;;;;;;;17.48;67.39;100264.41;5053137;28;20068;-78
2023/09/19 04:33:02;;;;;;;5.28;1.38;;;;;;;17.51;67.22;100260.78;5053425;28;20065;-77
2023/09/19 04:35:31;;;;;;;9.02;1.25;;;;;;;17.54;67.03;100260.66;5053330;28;20106;-77
2023/09/19 04:37:57;;;;;;;7.90;1.50;;;;;;;17.51;67.19;100258.09;5053371;28;20056;-79
2023/09/19 04:40:24;;;;;;;5.97;1.52;;;;;;;17.45;67.32;100264.50;5053146;28;20052;-78
2023/09/19 04:42:56;;;;;;;11.32;1.73;;;;;;;17.42;67.49;100259.28;5053336;28;20277;-79
2023/09/19 04:45:25;;;;;;;8.75;1.52;;;;;;;17.41;67.42;100256.69;5052891;28;20431;-77
2023/09/19 04:47:50;;;;;;;9.60;2.17;;;;;;;17.41;67.45;100262.84;5052775;28;20052;-78
2023/09/19 04:50:17;;;;;;;7.07;1.50;;;;;;;17.44;67.38;100257.44;5069572;28;20377;-79
2023/09/19 04:52:44;;;;;;;8.10;1.50;;;;;;;17.42;67.34;100250.44;5072720;28;20024;-80
2023/09/19 04:55:18;;;;;;;8.65;1.35;;;;;;;17.37;67.42;100261.22;5072618;28;20434;-78
2023/09/19 04:57:45;;;;;;;7.70;1.40;;;;;;;17.37;67.26;100261.22;5052778;28;20028;-78
2023/09/19 05:00:16;;;;;;;7.78;1.50;;;;;;;17.36;67.43;100259.47;5053000;28;20393;-77
2023/09/19 05:02:42;;;;;;;7.57;1.30;;;;;;;17.36;67.49;100259.47;5052831;28;20027;-79
2023/09/19 05:05:11;;;;;;;8.20;1.40;;;;;;;17.32;67.65;100263.16;5054997;28;20025;-77
2023/09/19 05:07:39;;;;;;;6.70;1.25;;;;;;;17.27;67.70;100265.13;5052518;28;20021;-78
2023/09/19 05:10:08;;;;;;;6.38;1.50;;;;;;;17.22;67.82;100268.75;5056838;28;20020;-77
2023/09/19 05:12:35;;;;;;;6.60;1.10;;;;;;;17.20;67.98;100269.75;5072303;28;20024;-79
2023/09/19 05:15:01;;;;;;;6.97;1.42;;;;;;;17.21;67.92;100274.16;5072131;28;20032;-77
2023/09/19 05:17:27;;;;;;;7.60;1.50;;;;;;;17.26;67.63;100274.03;5072561;28;20028;-77
2023/09/19 05:19:52;;;;;;;5.72;1.27;;;;;;;17.28;67.57;100275.69;5072372;28;20490;-76
2023/09/19 05:22:18;;;;;;;6.63;1.40;;;;;;;17.28;67.56;100281.00;5072652;28;20478;-77
2023/09/19 05:24:47;;;;;;;6.57;1.30;;;;;;;17.29;67.66;100273.91;5072319;28;20032;-77
2023/09/19 05:27:13;;;;;;;9.40;1.65;;;;;;;17.26;67.70;100287.31;5055465;28;20033;-77
2023/09/19 05:29:40;;;;;;;6.60;1.43;;;;;;;17.21;67.67;100288.31;5052125;28;20546;-77
2023/09/19 05:32:05;;;;;;;9.13;2.15;;;;;;;17.18;67.85;100291.06;5051660;28;20099;-78
2023/09/19 05:34:31;;;;;;;10.30;1.70;;;;;;;17.17;67.88;100292.00;5051932;28;20037;-77
2023/09/19 05:36:56;;;;;;;9.83;1.60;;;;;;;17.17;67.78;100294.66;5052416;28;20048;-77
2023/09/19 05:39:22;;;;;;;9.33;1.40;;;;;;;17.18;67.69;100292.88;5052084;28;20496;-77
2023/09/19 05:41:48;;;;;;;5.72;1.30;;;;;;;17.20;67.77;100297.22;5052273;28;20032;-78
2023/09/19 05:44:14;;;;;;;8.43;1.33;;;;;;;17.20;67.67;100302.53;5052026;28;20416;-77
2023/09/19 05:46:39;;;;;;;6.22;1.85;;;;;;;17.18;67.74;100293.75;5051691;28;20104;-78
2023/09/19 05:49:05;;;;;;;6.30;1.30;;;;;;;17.18;67.59;100299.06;5058516;28;20035;-77
2023/09/19 05:51:30;;;;;;;7.68;1.30;;;;;;;17.15;67.54;100307.13;5071645;28;20484;-77
2023/09/19 05:53:56;;;;;;;5.80;1.33;;;;;;;17.11;67.85;100308.16;5071586;28;20033;-80
2023/09/19 05:56:21;;;;;;;6.57;1.60;;;;;;;17.09;67.92;100315.31;5062010;28;20073;-78
2023/09/19 05:58:47;;;;;;;6.32;1.65;;;;;;;17.08;67.95;100318.91;5056544;28;20013;-77
2023/09/19 06:01:13;;;;;;;11.50;1.57;;;;;;;17.07;67.87;100317.16;5053917;28;20055;-80
2023/09/19 06:03:38;;;;;;;10.07;1.70;;;;;;;17.13;67.89;100324.09;5051263;28;20033;-76
2023/09/19 06:06:06;;;;;;;8.13;1.53;;;;;;;17.18;67.62;100320.34;5051418;28;20544;-75
2023/09/19 06:08:33;;;;;;;10.38;1.33;;;;;;;17.37;66.74;100317.13;5064763;28;20062;-75
2023/09/19 06:10:59;;;;;;;7.05;1.50;;;;;;;17.56;66.58;100320.06;5059062;28;20032;-75
2023/09/19 06:13:26;;;;;;;13.83;1.40;;;;;;;17.69;66.06;100315.19;5051242;28;20029;-75
2023/09/19 06:15:52;;;;;;;11.70;1.98;;;;;;;17.79;65.96;100329.97;5051167;28;20036;-76
2023/09/19 06:18:19;;;;;;;8.47;1.80;;;;;;;17.89;65.71;100329.66;5051123;28;20029;-82
2023/09/19 06:20:48;;;;;;;9.02;1.80;;;;;;;17.91;65.82;100325.16;5051573;28;20108;-83
2023/09/19 06:23:14;;;;;;;6.00;1.67;;;;;;;17.92;65.66;100325.09;5051130;28;20511;-77
2023/09/19 06:25:40;;;;;;;7.68;1.63;;;;;;;17.98;65.76;100326.69;5050731;28;20025;-80
2023/09/19 06:28:08;;;;;;;6.95;1.70;;;;;;;18.08;65.53;100321.94;5050900;28;20408;-76
2023/09/19 06:30:34;;;;;;;10.50;1.70;;;;;;;18.20;64.93;100320.63;5050638;28;20051;-76
2023/09/19 06:33:00;;;;;;;7.68;1.65;;;;;;;18.33;64.72;100319.28;5055585;28;20033;-76
2023/09/19 06:35:29;;;;;;;8.35;1.40;;;;;;;18.47;64.40;100324.13;5032767;28;20087;-76
2023/09/19 06:37:57;;;;;;;7.60;1.60;;;;;;;18.67;63.94;100326.97;5068891;28;20427;-77
2023/09/19 06:40:22;;;;;;;8.77;1.65;;;;;;;18.81;63.51;100319.34;5070377;28;20028;-76
2023/09/19 06:42:52;;;;;;;9.50;1.47;;;;;;;18.91;63.45;100320.72;5052371;28;20055;-76
2023/09/19 06:45:18;;;;;;;11.90;1.97;;;;;;;18.99;63.58;100323.13;5070422;28;20420;-76
2023/09/19 06:47:45;;;;;;;10.10;1.50;;;;;;;19.11;63.13;100319.13;5070289;28;20058;-76
2023/09/19 06:50:14;;;;;;;13.80;1.30;;;;;;;19.26;63.31;100311.47;5054204;28;20079;-77
2023/09/19 06:52:42;;;;;;;6.90;1.38;;;;;;;19.40;62.94;100311.75;5050626;28;20059;-76
2023/09/19 06:55:09;;;;;;;7.60;1.13;;;;;;;19.56;62.48;100312.03;5050386;28;20036;-80
2023/09/19 06:57:35;;;;;;;13.55;1.70;;;;;;;19.59;62.46;100308.34;5053793;28;20033;-80
2023/09/19 07:00:01;;;;;;;9.70;1.60;;;;;;;19.57;62.31;100305.75;5050543;28;20036;-77
2023/09/19 07:02:27;;;;;;;11.57;1.60;;;;;;;19.60;62.24;100300.28;5050547;28;20032;-77
2023/09/19 07:04:52;;;;;;;9.65;1.27;;;;;;;19.67;61.87;100308.94;5064631;28;20051;-76
2023/09/19 07:07:18;;;;;;;7.73;1.43;;;;;;;19.84;61.90;100304.66;5070037;28;20161;-76
2023/09/19 07:09:43;;;;;;;8.73;1.20;;;;;;;20.03;61.42;100308.31;5068392;28;20052;-76
2023/09/19 07:12:08;;;;;;;9.03;1.50;;;;;;;20.25;60.91;100302.03;5050204;28;20032;-76
2023/09/19 07:14:34;;;;;;;7.88;1.42;;;;;;;20.39;60.59;100300.56;5050194;28;20041;-77
2023/09/19 07:17:03;;;;;;;7.73;1.50;;;;;;;20.48;60.29;100297.47;5050508;28;20087;-76
2023/09/19 07:19:29;;;;;;;11.60;1.58;;;;;;;20.55;60.31;100296.25;5050355;28;20029;-76
2023/09/19 07:21:55;;;;;;;8.67;1.33;;;;;;;20.64;60.08;100298.53;5050140;28;20531;-76
2023/09/19 07:24:23;;;;;;;9.00;1.40;;;;;;;20.69;59.81;100294.78;5050035;28;20127;-76
2023/09/19 07:26:49;;;;;;;9.15;1.77;;;;;;;20.65;60.03;100294.03;5049576;28;20030;-76
2023/09/19 07:29:15;;;;;;;8.50;1.40;;;;;;;20.60;60.14;100296.91;5049828;28;20101;-81
2023/09/19 07:31:40;;;;;;;6.43;1.40;;;;;;;20.62;60.29;100297.75;5049696;28;20508;-76
2023/09/19 07:34:06;;;;;;;9.00;1.30;;;;;;;20.78;60.46;100294.34;5049729;28;20179;-76
2023/09/19 07:36:34;;;;;;;10.23;1.30;;;;;;;20.93;60.11;100304.38;5050306;28;20032;-76
2023/09/19 07:39:00;;;;;;;8.73;1.23;;;;;;;21.01;59.98;100306.69;5049798;28;20028;-77
2023/09/19 07:41:25;;;;;;;10.35;1.33;;;;;;;21.07;59.83;100306.41;5050003;28;20024;-76
2023/09/19 07:43:50;;;;;;;8.17;1.53;;;;;;;21.16;59.81;100307.78;5049642;28;20524;-77
2023/09/19 07:46:16;;;;;;;7.28;1.42;;;;;;;21.30;59.66;100300.88;5049587;28;20040;-83
2023/09/19 07:48:44;;;;;;;8.33;1.37;;;;;;;21.44;59.47;100309.09;5053392;28;20064;-84
2023/09/19 07:51:09;;;;;;;7.47;1.60;;;;;;;21.58;58.83;100300.38;5068814;28;20025;-84
2023/09/19 07:53:35;;;;;;;7.93;1.25;;;;;;;21.67;58.79;100304.47;5055459;28;20037;-84
2023/09/19 07:56:08;;;;;;;8.07;1.40;;;;;;;21.73;58.67;100301.47;5056401;28;20033;-82
2023/09/19 07:58:35;;;;;;;6.63;1.40;;;;;;;21.84;58.71;100305.44;5069617;28;20027;-76
2023/09/19 08:01:07;;;;;;;10.93;1.67;;;;;;;21.96;58.32;100310.16;5069481;28;20054;-77
2023/09/19 08:03:34;;;;;;;7.97;1.55;;;;;;;22.03;58.31;100308.03;5069237;28;20033;-76
2023/09/19 08:06:00;;;;;;;8.60;1.38;;;;;;;22.07;58.45;100313.16;5069268;28;20040;-82
2023/09/19 08:08:27;;;;;;;8.33;1.30;;;;;;;22.15;58.48;100319.94;5069284;28;20020;-81
2023/09/19 08:10:58;;;;;;;9.43;1.95;;;;;;;22.32;58.27;100317.25;5058127;28;20032;-79
2023/09/19 08:13:24;;;;;;;7.35;1.30;;;;;;;22.59;58.17;100318.56;5049498;28;20053;-82
2023/09/19 08:15:50;;;;;;;11.00;1.95;;;;;;;22.72;57.69;100314.28;5049232;28;20488;-80
2023/09/19 08:18:17;;;;;;;6.63;1.20;;;;;;;22.82;57.47;100313.78;5049064;28;20049;-81
2023/09/19 08:20:43;;;;;;;9.10;1.37;;;;;;;22.97;57.22;100312.94;5049045;28;20056;-82
2023/09/19 08:23:08;;;;;;;11.75;1.58;;;;;;;23.22;56.63;100311.56;5031479;28;20486;-83
2023/09/19 08:25:34;;;;;;;8.03;1.23;;;;;;;23.39;55.83;100318.69;5048644;28;20021;-82
2023/09/19 08:28:01;;;;;;;8.77;1.38;;;;;;;23.47;55.65;100321.78;5048960;28;20509;-82
2023/09/19 08:30:30;;;;;;;10.65;1.60;;;;;;;23.57;56.08;100327.50;5048808;28;20033;-81
2023/09/19 08:32:59;;;;;;;11.83;1.80;;;;;;;23.71;55.83;100324.03;5048966;28;20025;-81
2023/09/19 08:35:24;;;;;;;11.80;1.20;;;;;;;23.90;55.69;100323.81;5048928;28;20023;-82
2023/09/19 08:37:50;;;;;;;7.28;1.23;;;;;;;24.01;55.53;100328.59;5048988;28;20111;-80
2023/09/19 08:40:16;;;;;;;9.60;1.73;;;;;;;24.13;55.31;100328.81;5049017;28;20469;-80
2023/09/19 08:42:55;;;;;;;17.23;1.80;;;;;;;24.29;55.23;100317.97;5049354;28;20021;-82
2023/09/19 08:45:27;;;;;;;7.72;1.38;;;;;;;24.52;54.49;100321.97;5031002;28;20029;-81
2023/09/19 08:48:25;;;;;;;9.97;1.57;;;;;;;24.54;54.02;100311.97;5048916;28;20094;-84
2023/09/19 08:51:06;;;;;;;8.63;1.27;;;;;;;24.52;53.93;100320.13;5049520;28;20069;-82
2023/09/19 08:53:41;;;;;;;11.18;1.52;;;;;;;24.72;53.96;100314.47;5048873;28;20112;-82
2023/09/19 08:56:10;;;;;;;9.52;1.40;;;;;;;24.92;53.56;100315.94;5056770;28;20460;-84
2023/09/19 08:58:48;;;;;;;7.90;1.30;;;;;;;24.98;53.68;100307.44;5068839;28;20084;-83
2023/09/19 09:01:24;;;;;;;8.10;1.40;;;;;;;24.94;52.93;100309.47;5068810;28;20494;-81
2023/09/19 09:03:50;;;;;;;7.30;1.42;;;;;;;25.02;53.43;100313.50;5072397;28;20031;-80
2023/09/19 09:06:18;;;;;;;8.20;1.35;;;;;;;25.22;53.00;100314.91;5072523;28;20207;-81
2023/09/19 09:08:44;;;;;;;10.57;1.50;;;;;;;25.35;52.82;100313.16;5072349;28;20028;-85
2023/09/19 09:11:11;;;;;;;7.15;1.30;;;;;;;25.51;52.53;100313.03;5059063;28;20033;-81
2023/09/19 09:13:37;;;;;;;8.63;1.27;;;;;;;25.55;51.98;100310.97;5052418;28;20025;-78
2023/09/19 09:16:02;;;;;;;10.75;1.50;;;;;;;25.49;52.25;100309.59;5052029;28;20039;-79
2023/09/19 09:18:31;;;;;;;9.85;1.40;;;;;;;25.42;52.40;100308.19;5051914;28;20029;-79
2023/09/19 09:20:57;;;;;;;10.03;1.60;;;;;;;25.28;52.21;100311.81;5052187;28;20032;-85
2023/09/19 09:23:22;;;;;;;7.25;1.33;;;;;;;25.20;52.81;100309.63;5052225;28;20173;-81
2023/09/19 09:25:50;;;;;;;8.30;1.30;;;;;;;25.13;52.93;100302.91;5052037;28;20323;-80
2023/09/19 09:28:20;;;;;;;8.52;1.20;;;;;;;24.96;52.71;100301.28;5052259;28;20039;-83
2023/09/19 09:30:46;;;;;;;10.57;1.55;;;;;;;24.83;53.39;100298.53;5052010;28;20413;-77
2023/09/19 09:33:13;;;;;;;8.53;1.00;;;;;;;24.67;53.63;100298.59;5051884;28;20033;-77
2023/09/19 09:36:02;;;;;;;8.02;1.17;;;;;;;24.50;53.64;100297.81;5051808;28;20033;-76
2023/09/19 09:38:55;;;;;;;7.53;1.58;;;;;;;24.44;54.13;100300.03;5051782;28;20040;-76
2023/09/19 09:41:37;;;;;;;8.07;1.42;;;;;;;24.40;54.51;100298.47;5051462;28;20029;-77
2023/09/19 09:44:23;;;;;;;9.33;1.30;;;;;;;24.33;54.17;100293.50;5051691;28;20028;-77
2023/09/19 09:49:33;;;;;;;10.27;1.30;;;;;;;24.43;54.28;100293.78;5051679;28;20235;-77
2023/09/19 09:52:07;;;;;;;8.68;1.00;;;;;;;24.46;53.71;100298.97;5052441;28;20025;-77
2023/09/19 09:54:37;;;;;;;8.48;1.17;;;;;;;24.49;54.11;100297.94;5071418;28;20549;-78
2023/09/19 09:57:13;;;;;;;7.80;1.40;;;;;;;24.47;53.49;100295.31;5056271;28;20373;-78
2023/09/19 09:59:57;;;;;;;8.77;1.35;;;;;;;24.54;53.50;100300.31;5051456;28;20025;-77
2023/09/19 10:02:32;;;;;;;8.27;1.30;;;;;;;24.70;53.39;100294.81;5051256;28;20111;-77
2023/09/19 10:05:07;;;;;;;10.98;1.27;;;;;;;24.90;52.83;100291.78;5051585;28;20021;-78
2023/09/19 10:07:35;;;;;;;7.70;1.08;;;;;;;25.22;52.24;100287.97;5051416;28;20025;-77
2023/09/19 10:10:19;;;;;;;7.50;1.07;;;;;;;25.49;51.12;100282.63;5055810;28;20022;-78
2023/09/19 10:12:48;;;;;;;6.38;0.98;;;;;;;25.73;50.30;100276.53;5071150;28;20021;-77
2023/09/19 10:15:17;;;;;;;9.20;1.38;;;;;;;26.00;49.11;100275.63;5070637;28;20040;-79
2023/09/19 10:17:44;;;;;;;8.27;1.30;;;;;;;26.12;49.68;100270.31;5071130;28;20028;-78
2023/09/19 10:20:33;;;;;;;7.57;1.30;;;;;;;26.11;49.48;100271.31;5071153;28;20061;-77
2023/09/19 10:23:09;;;;;;;8.43;0.97;;;;;;;25.99;49.20;100271.19;5071287;28;20037;-77
2023/09/19 10:25:36;;;;;;;6.10;0.80;;;;;;;25.99;49.26;100271.19;5067770;28;20025;-77
2023/09/19 10:28:06;;;;;;;6.68;0.85;;;;;;;26.16;49.28;100274.53;5051868;28;20552;-80
2023/09/19 10:30:34;;;;;;;7.35;0.95;;;;;;;26.39;48.14;100274.78;5050892;28;20055;-82
2023/09/19 10:33:05;;;;;;;5.75;0.80;;;;;;;26.56;47.42;100269.06;5050918;28;20485;-84
2023/09/19 10:35:32;;;;;;;7.47;1.00;;;;;;;26.85;47.82;100258.00;5050874;28;20032;-83
2023/09/19 10:38:01;;;;;;;5.93;0.90;;;;;;;27.18;47.71;100259.22;5051060;28;20113;-83
2023/09/19 10:40:32;;;;;;;7.68;0.90;;;;;;;27.50;47.08;100249.69;5051366;28;20166;-85
2023/09/19 10:43:05;;;;;;;7.15;0.77;;;;;;;27.53;46.91;100248.59;5052173;28;20067;-82
2023/09/19 10:45:31;;;;;;;6.85;1.15;;;;;;;27.58;46.16;100251.81;5050884;28;20025;-84
2023/09/19 10:47:57;;;;;;;6.53;1.03;;;;;;;27.57;45.92;100242.84;5050768;28;20021;-84
2023/09/19 10:50:23;;;;;;;7.63;0.70;;;;;;;27.35;46.06;100235.44;5051300;28;20100;-85
2023/09/19 10:52:57;;;;;;;5.55;0.98;;;;;;;27.28;46.16;100235.06;5050539;28;20369;-84
2023/09/19 10:55:27;;;;;;;5.88;0.90;;;;;;;27.33;46.11;100237.41;5051846;28;20493;-85
2023/09/19 10:57:53;;;;;;;4.75;0.80;;;;;;;27.49;45.13;100221.75;5070482;28;20032;-84
2023/09/19 11:00:22;;;;;;;5.53;0.97;;;;;;;27.64;44.41;100229.72;5070639;28;20126;-85
2023/09/19 11:03:11;;;;;;;6.05;0.90;;;;;;;27.82;44.17;100223.84;5070592;28;20024;-83
2023/09/19 11:05:40;;;;;;;5.00;0.60;;;;;;;27.96;44.32;100226.34;5070440;28;20362;-85
2023/09/19 11:08:07;;;;;;;5.80;0.70;;;;;;;27.78;44.16;100225.94;5070475;28;20028;-81
2023/09/19 11:10:50;;;;;;;6.63;1.05;;;;;;;27.67;44.10;100224.06;5061730;28;20104;-85
2023/09/19 11:13:30;;;;;;;4.83;0.80;;;;;;;27.86;44.19;100217.25;5050234;28;20021;-84
2023/09/19 11:15:59;;;;;;;3.47;0.63;;;;;;;28.08;43.35;100211.84;5050239;28;20035;-86
2023/09/19 11:18:45;;;;;;;4.95;0.80;;;;;;;28.19;43.21;100208.31;5050090;28;20021;-86
2023/09/19 11:21:30;;;;;;;4.78;0.68;;;;;;;28.44;41.97;100209.06;5032870;28;20504;-85
2023/09/19 11:24:35;;;;;;;5.28;0.80;;;;;;;28.63;42.25;100203.03;5050744;28;20181;-84
2023/09/19 11:27:13;;;;;;;4.50;0.97;;;;;;;28.82;41.64;100192.53;5050027;28;20040;-86
2023/09/19 11:29:39;;;;;;;5.05;0.80;;;;;;;29.05;40.66;100196.03;5049981;28;20029;-85
2023/09/19 11:32:05;;;;;;;6.45;0.80;;;;;;;28.77;40.56;100196.47;5059986;28;20048;-86
2023/09/19 11:34:39;;;;;;;5.68;0.75;;;;;;;28.25;41.27;100190.72;5069741;28;20039;-85
2023/09/19 11:37:13;;;;;;;4.95;0.80;;;;;;;27.84;42.01;100197.53;5072219;28;20097;-86